Lady S — ZC0D7 — position and weather

sailwx.info

Track history (hours):
 
Tides and Currents Weather Stations Pressure Air Temp Water Temp Dewpoint Dewpoint Depression Visibility Wind Speed Wind Dir Waves Ship Positions

Lady S

Last reported at 2017-Sep-22 00:29 UTC. Time now 2017-Sep-26 18:32 UTC.
Position N 38°40' E 015°18'.

Length 69 m; draft 3.8 m.

Type: Ship. MMSI: 319369000.

Date/timePositionNaut miles runAvg speedWind from/ knotsBaromVisibWave heightAir tempDewpointWater temp
2017-Sep-22 00:29N 38°40' E 015°18'613.7
2017-Sep-22 00:00N 38°35' E 015°24'713.5
2017-Sep-21 23:28N 38°29' E 015°30'613.3
2017-Sep-21 23:00N 38°25' E 015°35'713.0
2017-Sep-21 22:30N 38°20' E 015°40'5 9.5
2017-Sep-21 22:00N 38°15' E 015°39'510.8
2017-Sep-21 21:30N 38°10' E 015°37'612.9
2017-Sep-21 21:01N 38°04' E 015°37'713.4
2017-Sep-21 20:30N 37°57' E 015°39'713.5
2017-Sep-21 19:58N 37°54' E 015°47'  
2017-Sep-12 15:46N 44°30' E 014°23'414.8
2017-Sep-12 15:30N 44°32' E 014°19'714.8
2017-Sep-12 15:00N 44°36' E 014°10'815.1
2017-Sep-12 14:30N 44°40' E 014°01'714.6
2017-Sep-12 14:00N 44°44' E 013°52'713.8
2017-Sep-12 13:30N 44°50' E 013°48'3 0.5
2017-Sep-12 07:01N 44°53' E 013°48'0 8.4
2017-Sep-12 07:01N 44°53' E 013°48'5 9.2
2017-Sep-12 06:30N 44°54' E 013°41'611.3
2017-Sep-12 06:00N 44°56' E 013°34'611.4
2017-Sep-12 05:30N 44°58' E 013°26'612.7
2017-Sep-12 05:00N 45°00' E 013°18'1212.4
2017-Sep-12 04:00N 45°05' E 013°02'5 9.3
2017-Sep-12 03:30N 45°08' E 012°57'4 8.6
2017-Sep-12 03:00N 45°11' E 012°52'510.2
2017-Sep-12 02:30N 45°15' E 012°47'510.4
2017-Sep-12 01:59N 45°19' E 012°42'510.2
2017-Sep-12 01:30N 45°21' E 012°35'5 9.7
2017-Sep-12 01:00N 45°23' E 012°29'510.2
2017-Sep-12 00:30N 45°26' E 012°24'  
Track history (hours):
 
Tides and Currents Weather Stations Pressure Air Temp Water Temp Dewpoint Dewpoint Depression Visibility Wind Speed Wind Dir Waves Ship Positions

Lady S

Last reported at 2017-Sep-22 00:29 UTC. Time now 2017-Sep-26 18:32 UTC.
Position N 38°40' E 015°18'.

Length 69 m; draft 3.8 m.

Type: Ship. MMSI: 319369000.

Date/timePositionNaut miles runAvg speedWind from/ knotsBaromVisibWave heightAir tempDewpointWater temp
2017-Sep-22 00:29N 38°40' E 015°18'613.7
2017-Sep-22 00:00N 38°35' E 015°24'713.5
2017-Sep-21 23:28N 38°29' E 015°30'613.3
2017-Sep-21 23:00N 38°25' E 015°35'713.0
2017-Sep-21 22:30N 38°20' E 015°40'5 9.5
2017-Sep-21 22:00N 38°15' E 015°39'510.8
2017-Sep-21 21:30N 38°10' E 015°37'612.9
2017-Sep-21 21:01N 38°04' E 015°37'713.4
2017-Sep-21 20:30N 37°57' E 015°39'713.5
2017-Sep-21 19:58N 37°54' E 015°47'  
2017-Sep-12 15:46N 44°30' E 014°23'414.8
2017-Sep-12 15:30N 44°32' E 014°19'714.8
2017-Sep-12 15:00N 44°36' E 014°10'815.1
2017-Sep-12 14:30N 44°40' E 014°01'714.6
2017-Sep-12 14:00N 44°44' E 013°52'713.8
2017-Sep-12 13:30N 44°50' E 013°48'3 0.5
2017-Sep-12 07:01N 44°53' E 013°48'0 8.4
2017-Sep-12 07:01N 44°53' E 013°48'5 9.2
2017-Sep-12 06:30N 44°54' E 013°41'611.3
2017-Sep-12 06:00N 44°56' E 013°34'611.4
2017-Sep-12 05:30N 44°58' E 013°26'612.7
2017-Sep-12 05:00N 45°00' E 013°18'1212.4
2017-Sep-12 04:00N 45°05' E 013°02'5 9.3
2017-Sep-12 03:30N 45°08' E 012°57'4 8.6
2017-Sep-12 03:00N 45°11' E 012°52'510.2
2017-Sep-12 02:30N 45°15' E 012°47'510.4
2017-Sep-12 01:59N 45°19' E 012°42'510.2
2017-Sep-12 01:30N 45°21' E 012°35'5 9.7
2017-Sep-12 01:00N 45°23' E 012°29'510.2
2017-Sep-12 00:30N 45°26' E 012°24'  

Dump ship's entire track history